Home   Weather   Spain   Torrevieja   Past weeks
Flag for Spain

Past Weather in Torrevieja, Alicante, Spain — Yesterday and Last 2 Weeks

Currently: 66 °F. Passing clouds. (Weather station: Murcia / San Javier, Spain). See more current weather

Past Weather in Torrevieja — Graph

°F

Torrevieja Temperature Yesterday

Maximum temperature yesterday: 75 °F (at 2:30 pm)
Minimum temperature yesterday: 52 °F (at 5:30 am)
Average temperature yesterday: 63 °F

High & Low Weather Summary for the Past Weeks

 TemperatureHumidityPressure
High81 °F (Nov 17, 2:30 pm)100% (Nov 14, 12:00 am)30.42 "Hg (Nov 14, 12:00 am)
Low46 °F (Nov 26, 6:30 am)32% (Nov 19, 5:00 pm)29.77 "Hg (Nov 17, 3:00 pm)
Average64 °F70%30.05 "Hg
* Reported Nov 11 3:00 pm — Nov 26 3:00 pm, Torrevieja. Weather by CustomWeather, © 2022

Note: Actual official high and low records may vary slightly from our data, if they occured in-between our weather recording intervals... More about our weather records

Torrevieja Weather History for the Previous 24 Hours

Scroll right to see more
 ConditionsComfort  
Time TempWeatherWind HumidityBarometerVisibility
3:00 pm
Sat, Nov 26
66 °FPassing clouds.6 mph52%30.36 "HgN/A
2:00 pm64 °FPassing clouds.3 mph43%30.39 "HgN/A
1:30 pm64 °FSunny.2 mph46%30.39 "Hg10 mi
1:00 pm64 °FPassing clouds.3 mph49%30.39 "HgN/A
12:30 pm66 °FSunny.2 mph46%30.42 "Hg10 mi
12:00 pm64 °FPassing clouds.3 mph52%30.42 "HgN/A
11:30 am63 °FPassing clouds.5 mph52%30.42 "HgN/A
11:00 am63 °FSunny.1 mph52%30.42 "Hg10 mi
10:30 am61 °FSunny.1 mph55%30.42 "Hg10 mi
10:00 am57 °FSunny.2 mph59%30.42 "Hg10 mi
9:30 am54 °FSunny.5 mph67%30.42 "Hg10 mi
9:00 am52 °FPassing clouds.3 mph72%30.39 "HgN/A
8:30 am48 °FSunny.5 mph71%30.39 "Hg10 mi
8:00 am46 °FSunny.5 mph76%30.39 "Hg10 mi
7:30 am46 °FCool.3 mph76%30.39 "Hg6 mi
7:00 am46 °FCool.3 mph82%30.36 "Hg6 mi
6:30 am46 °FCool.5 mph76%30.36 "Hg6 mi
6:00 am50 °FPassing clouds.3 mph71%30.36 "HgN/A
5:30 am54 °FPassing clouds.5 mph58%30.36 "HgN/A
5:00 am54 °FClear.2 mph58%30.36 "Hg10 mi
4:30 am50 °FClear.2 mph67%30.36 "Hg10 mi
4:00 am54 °FClear.3 mph54%30.36 "Hg10 mi
3:30 am55 °FRefreshingly cool.5 mph55%30.36 "Hg6 mi
3:00 am55 °FClear.2 mph55%30.36 "Hg10 mi
2:30 am57 °FRefreshingly cool.5 mph48%30.36 "Hg6 mi
2:00 am57 °FRefreshingly cool.2 mph48%30.36 "Hg6 mi
12:30 am59 °FPassing clouds.5 mph45%30.36 "HgN/A
12:00 am57 °FClear.5 mph48%30.36 "Hg10 mi
11:30 pm
Fri, Nov 25
59 °FClear.7 mph45%30.36 "Hg10 mi
11:00 pm59 °FClear.2 mph48%30.36 "Hg10 mi
10:30 pm61 °FClear.8 mph42%30.33 "Hg10 mi
10:00 pm63 °FClear.8 mph39%30.33 "Hg10 mi
9:30 pm63 °FClear.8 mph39%30.33 "Hg10 mi
9:00 pm64 °FPassing clouds.6 mph37%30.30 "HgN/A
8:30 pm64 °FClear.2 mph43%30.30 "Hg10 mi
8:00 pm66 °FPassing clouds.10 mph37%30.27 "HgN/A
7:30 pm64 °FPassing clouds.5 mph40%30.27 "HgN/A
6:30 pm66 °FClear.5 mph43%30.21 "Hg10 mi
6:00 pm68 °FClear.6 mph43%30.21 "Hg10 mi
5:00 pm73 °FSunny.12 mph38%30.18 "Hg10 mi
4:30 pm73 °FSunny.9 mph41%30.18 "Hg10 mi
4:00 pm75 °FPassing clouds.13 mph41%30.18 "HgN/A
Weather by CustomWeather, © 2022

See weather overview